createdAt,value
2018-10-21T00:00:53.085Z,6.56
2018-10-21T00:01:53.061Z,6.54
2018-10-21T00:02:53.078Z,6.48
2018-10-21T00:03:53.030Z,6.48
2018-10-21T00:04:52.998Z,6.40
2018-10-21T00:05:52.983Z,6.51
2018-10-21T00:06:52.956Z,6.48
2018-10-21T00:07:52.936Z,6.44
2018-10-21T00:08:52.943Z,6.46
2018-10-21T00:09:52.951Z,6.36
2018-10-21T00:10:52.881Z,6.44
2018-10-21T00:11:52.858Z,6.49
2018-10-21T00:12:52.882Z,6.49
2018-10-21T00:13:52.819Z,6.51
2018-10-21T00:14:52.815Z,6.44
2018-10-21T00:15:52.780Z,6.46
2018-10-21T00:16:52.760Z,6.40
2018-10-21T00:17:52.739Z,6.41
2018-10-21T00:18:52.720Z,6.33
2018-10-21T00:19:52.713Z,6.28
2018-10-21T00:20:52.681Z,6.21
2018-10-21T00:21:52.659Z,6.21
2018-10-21T00:22:52.639Z,6.14
2018-10-21T00:23:52.620Z,6.12
2018-10-21T00:24:52.617Z,6.14
2018-10-21T00:25:52.596Z,6.12
2018-10-21T00:26:52.556Z,6.14
2018-10-21T00:27:52.541Z,6.12
2018-10-21T00:28:52.515Z,6.04
2018-10-21T00:29:52.507Z,6.06
2018-10-21T00:30:52.480Z,6.04
2018-10-21T00:31:52.481Z,6.17
2018-10-21T00:32:52.436Z,6.18
2018-10-21T00:33:52.421Z,6.18
2018-10-21T00:34:52.396Z,6.25
2018-10-21T00:35:52.384Z,6.36
2018-10-21T00:36:52.376Z,6.52
2018-10-21T00:37:52.339Z,6.52
2018-10-21T00:38:52.318Z,6.49
2018-10-21T00:39:52.301Z,6.48
2018-10-21T00:40:52.283Z,6.55
2018-10-21T00:41:52.275Z,6.52
2018-10-21T00:42:52.244Z,6.46
2018-10-21T00:43:52.248Z,6.44
2018-10-21T00:44:52.195Z,6.49
2018-10-21T00:45:52.177Z,6.48
2018-10-21T00:46:52.177Z,6.54
2018-10-21T00:47:52.138Z,6.52
2018-10-21T00:48:52.130Z,6.49
2018-10-21T00:49:52.097Z,6.46
2018-10-21T00:50:52.080Z,6.37
2018-10-21T00:51:52.055Z,6.37
2018-10-21T00:52:52.037Z,6.33
2018-10-21T00:53:52.015Z,6.25
2018-10-21T00:54:52.020Z,6.27
2018-10-21T00:55:51.975Z,6.15
2018-10-21T00:56:51.953Z,6.14
2018-10-21T00:57:51.935Z,6.11
2018-10-21T00:58:51.915Z,6.11
2018-10-21T00:59:51.910Z,6.06
2018-10-21T01:00:51.875Z,6.00
2018-10-21T01:01:51.872Z,6.06
2018-10-21T01:02:51.832Z,6.04
2018-10-21T01:03:51.816Z,6.09
2018-10-21T01:04:51.809Z,5.99
2018-10-21T01:05:51.789Z,5.96
2018-10-21T01:06:51.752Z,6.01
2018-10-21T01:07:51.751Z,5.93
2018-10-21T01:08:51.712Z,5.99
2018-10-21T01:09:51.692Z,5.97
2018-10-21T01:10:51.688Z,5.96
2018-10-21T01:11:51.652Z,5.97
2018-10-21T01:12:51.623Z,5.94
2018-10-21T01:13:51.633Z,5.99
2018-10-21T01:14:51.605Z,5.99
2018-10-21T01:15:51.574Z,5.90
2018-10-21T01:16:51.550Z,5.93
2018-10-21T01:17:51.579Z,5.96
2018-10-21T01:18:51.527Z,5.93
2018-10-21T01:19:51.499Z,5.96
2018-10-21T01:20:51.472Z,6.00
2018-10-21T01:21:51.454Z,5.93
2018-10-21T01:22:51.430Z,5.91
2018-10-21T01:23:51.412Z,5.89
2018-10-21T01:24:51.409Z,5.82
2018-10-21T01:25:51.368Z,5.71
2018-10-21T01:26:51.348Z,5.76
2018-10-21T01:27:51.335Z,5.72
2018-10-21T01:28:51.310Z,5.65
2018-10-21T01:29:51.312Z,5.64
2018-10-21T01:30:51.272Z,5.67
2018-10-21T01:31:51.250Z,5.64
2018-10-21T01:32:51.271Z,5.68
2018-10-21T01:33:51.208Z,5.76
2018-10-21T01:34:51.187Z,5.75
2018-10-21T01:35:51.165Z,5.68
2018-10-21T01:36:51.186Z,5.76
2018-10-21T01:37:51.138Z,5.71
2018-10-21T01:38:51.126Z,5.67
2018-10-21T01:39:51.153Z,5.71
2018-10-21T01:40:51.078Z,5.63
2018-10-21T01:41:51.048Z,5.57
2018-10-21T01:42:51.044Z,5.58
2018-10-21T01:43:51.010Z,5.61
2018-10-21T01:44:50.980Z,5.71
2018-10-21T01:45:50.967Z,5.65
2018-10-21T01:46:50.948Z,5.71
2018-10-21T01:47:50.925Z,5.68
2018-10-21T01:48:50.917Z,5.75
2018-10-21T01:49:50.886Z,5.71
2018-10-21T01:50:50.866Z,5.68
2018-10-21T01:51:50.844Z,5.65
2018-10-21T01:52:50.828Z,5.71
2018-10-21T01:53:50.817Z,5.65
2018-10-21T01:54:50.780Z,5.72
2018-10-21T01:55:50.760Z,5.71
2018-10-21T01:56:50.743Z,5.68
2018-10-21T01:57:50.720Z,5.67
2018-10-21T01:58:50.701Z,5.72
2018-10-21T01:59:50.699Z,5.72
2018-10-21T02:00:50.661Z,5.67
2018-10-21T02:01:50.661Z,5.67
2018-10-21T02:02:50.616Z,5.72
2018-10-21T02:03:50.598Z,5.71
2018-10-21T02:04:50.581Z,5.86
2018-10-21T02:05:50.562Z,5.83
2018-10-21T02:06:50.537Z,5.99
2018-10-21T02:07:50.532Z,6.06
2018-10-21T02:08:50.493Z,6.03
2018-10-21T02:09:50.487Z,6.08
2018-10-21T02:10:50.460Z,6.14
2018-10-21T02:11:50.438Z,6.11
2018-10-21T02:12:50.435Z,6.11
2018-10-21T02:13:50.400Z,6.17
2018-10-21T02:14:50.395Z,6.18
2018-10-21T02:15:50.358Z,6.14
2018-10-21T02:16:50.336Z,6.17
2018-10-21T02:17:50.318Z,6.09
2018-10-21T02:18:50.299Z,6.01
2018-10-21T02:19:50.276Z,6.00
2018-10-21T02:20:50.278Z,5.90
2018-10-21T02:21:50.235Z,5.90
2018-10-21T02:22:50.217Z,5.93
2018-10-21T02:23:50.212Z,5.82
2018-10-21T02:24:50.167Z,5.79
2018-10-21T02:25:50.152Z,5.79
2018-10-21T02:26:50.155Z,5.83
2018-10-21T02:27:50.115Z,5.81
2018-10-21T02:28:50.092Z,5.81
2018-10-21T02:29:50.096Z,5.78
2018-10-21T02:30:50.069Z,5.89
2018-10-21T02:31:50.035Z,5.85
2018-10-21T02:32:50.019Z,5.90
2018-10-21T02:33:49.992Z,6.00
2018-10-21T02:34:49.969Z,6.00
2018-10-21T02:35:49.954Z,5.97
2018-10-21T02:36:49.946Z,6.00
2018-10-21T02:37:49.909Z,6.08
2018-10-21T02:38:49.889Z,6.15
2018-10-21T02:39:49.866Z,6.11
2018-10-21T02:40:49.844Z,6.14
2018-10-21T02:41:49.844Z,6.11
2018-10-21T02:42:49.807Z,6.18
2018-10-21T02:43:49.789Z,6.15
2018-10-21T02:44:49.767Z,6.08
2018-10-21T02:45:49.753Z,6.11
2018-10-21T02:46:49.760Z,6.12
2018-10-21T02:47:49.728Z,6.11
2018-10-21T02:48:49.683Z,6.12
2018-10-21T02:49:49.660Z,6.17
2018-10-21T02:50:49.646Z,6.11
2018-10-21T02:51:49.624Z,6.08
2018-10-21T02:52:49.619Z,6.14
2018-10-21T02:53:49.583Z,6.11
2018-10-21T02:54:49.559Z,6.11
2018-10-21T02:55:49.544Z,6.11
2018-10-21T02:56:49.521Z,6.12
2018-10-21T02:57:49.517Z,6.09
2018-10-21T02:58:49.494Z,6.01
2018-10-21T02:59:49.477Z,6.04
2018-10-21T03:00:49.441Z,5.96
2018-10-21T03:01:49.417Z,5.97
2018-10-21T03:02:49.401Z,5.94
2018-10-21T03:03:49.378Z,5.86
2018-10-21T03:04:49.373Z,5.96
2018-10-21T03:05:49.343Z,5.82
2018-10-21T03:06:49.318Z,5.91
2018-10-21T03:07:49.314Z,5.99
2018-10-21T03:08:49.280Z,6.09
2018-10-21T03:09:49.258Z,6.12
2018-10-21T03:10:49.245Z,6.11
2018-10-21T03:11:49.219Z,6.04
2018-10-21T03:12:49.213Z,6.03
2018-10-21T03:13:49.172Z,6.04
2018-10-21T03:14:49.171Z,6.04
2018-10-21T03:15:49.132Z,6.08
2018-10-21T03:16:49.113Z,5.96
2018-10-21T03:17:49.089Z,6.04
2018-10-21T03:18:49.071Z,6.11
2018-10-21T03:19:49.066Z,6.11
2018-10-21T03:20:49.033Z,6.15
2018-10-21T03:21:49.009Z,6.12
2018-10-21T03:22:49.012Z,6.09
2018-10-21T03:23:48.968Z,6.08
2018-10-21T03:24:48.946Z,6.06
2018-10-21T03:25:48.942Z,6.04
2018-10-21T03:26:49.549Z,5.99
2018-10-21T03:27:48.890Z,5.96
2018-10-21T03:28:48.870Z,5.94
2018-10-21T03:29:48.846Z,5.91
2018-10-21T03:30:48.827Z,5.91
2018-10-21T03:31:48.832Z,5.89
2018-10-21T03:32:48.804Z,5.90
2018-10-21T03:33:48.840Z,5.85
2018-10-21T03:34:48.743Z,5.91
2018-10-21T03:35:48.721Z,5.99
2018-10-21T03:36:48.702Z,5.99
2018-10-21T03:37:48.695Z,5.97
2018-10-21T03:38:48.661Z,6.00
2018-10-21T03:39:48.634Z,5.96
2018-10-21T03:40:48.616Z,6.00
2018-10-21T03:41:48.604Z,6.00
2018-10-21T03:42:48.591Z,5.99
2018-10-21T03:43:48.555Z,5.96
2018-10-21T03:44:48.540Z,5.97
2018-10-21T03:45:48.514Z,5.91
2018-10-21T03:46:48.493Z,5.99
2018-10-21T03:47:48.493Z,5.94
2018-10-21T03:48:48.451Z,5.86
2018-10-21T03:49:48.436Z,5.89
2018-10-21T03:50:48.411Z,5.90
2018-10-21T03:51:48.389Z,5.82
2018-10-21T03:52:48.380Z,5.83
2018-10-21T03:53:48.368Z,5.81
2018-10-21T03:54:48.332Z,5.78
2018-10-21T03:55:48.309Z,5.81
2018-10-21T03:56:48.285Z,5.89
2018-10-21T03:57:48.266Z,5.76
2018-10-21T03:58:48.266Z,5.89
2018-10-21T03:59:48.247Z,5.85
2018-10-21T04:00:48.213Z,6.01
2018-10-21T04:01:48.185Z,6.11
2018-10-21T04:02:48.166Z,6.08
2018-10-21T04:03:48.147Z,6.06
2018-10-21T04:04:48.147Z,6.00
2018-10-21T04:05:48.104Z,6.03
2018-10-21T04:06:48.085Z,5.93
2018-10-21T04:07:48.070Z,5.96
2018-10-21T04:08:48.040Z,5.85
2018-10-21T04:09:48.021Z,5.82
2018-10-21T04:10:48.025Z,5.83
2018-10-21T04:11:47.979Z,5.81
2018-10-21T04:12:47.961Z,5.79
2018-10-21T04:13:47.939Z,5.93
2018-10-21T04:14:47.947Z,6.08
2018-10-21T04:15:47.903Z,6.19
2018-10-21T04:16:47.873Z,6.34
2018-10-21T04:17:47.858Z,6.34
2018-10-21T04:18:47.836Z,6.43
2018-10-21T04:19:47.818Z,6.41
2018-10-21T04:20:47.805Z,6.51
2018-10-21T04:21:47.778Z,6.51
2018-10-21T04:22:47.754Z,6.55
2018-10-21T04:23:47.734Z,6.61
2018-10-21T04:24:47.712Z,6.71
2018-10-21T04:25:47.710Z,6.67
2018-10-21T04:26:47.673Z,6.71
2018-10-21T04:27:47.652Z,6.79
2018-10-21T04:28:47.630Z,6.79
2018-10-21T04:29:47.611Z,6.67
2018-10-21T04:30:47.600Z,6.69
2018-10-21T04:31:47.567Z,6.59
2018-10-21T04:32:47.545Z,6.61
2018-10-21T04:33:47.529Z,6.69
2018-10-21T04:34:47.500Z,6.66
2018-10-21T04:35:47.503Z,6.56
2018-10-21T04:36:47.465Z,6.55
2018-10-21T04:37:47.445Z,6.52
2018-10-21T04:38:47.426Z,6.51
2018-10-21T04:39:47.420Z,6.40
2018-10-21T04:40:47.382Z,6.38
2018-10-21T04:41:47.360Z,6.34
2018-10-21T04:42:47.354Z,6.30
2018-10-21T04:43:47.337Z,6.30
2018-10-21T04:44:47.299Z,6.25
2018-10-21T04:45:47.280Z,6.14
2018-10-21T04:46:47.375Z,6.14
2018-10-21T04:47:47.236Z,5.99
2018-10-21T04:48:47.232Z,6.08
2018-10-21T04:49:47.194Z,5.99
2018-10-21T04:50:47.178Z,5.96
2018-10-21T04:51:47.174Z,5.96
2018-10-21T04:52:47.131Z,6.00
2018-10-21T04:53:47.134Z,5.94
2018-10-21T04:54:47.102Z,6.09
2018-10-21T04:55:47.081Z,6.15
2018-10-21T04:56:47.078Z,6.06
2018-10-21T04:57:47.035Z,6.14
2018-10-21T04:58:47.029Z,6.14
2018-10-21T04:59:46.991Z,6.04
2018-10-21T05:00:47.016Z,6.14
2018-10-21T05:01:46.946Z,6.04
2018-10-21T05:02:46.949Z,6.00
2018-10-21T05:03:46.910Z,6.00
2018-10-21T05:04:46.888Z,6.00
2018-10-21T05:05:46.869Z,5.99
2018-10-21T05:06:46.848Z,6.04
2018-10-21T05:07:46.829Z,6.00
2018-10-21T05:08:46.823Z,6.06
2018-10-21T05:09:48.516Z,6.01
2018-10-21T05:10:46.767Z,6.11
2018-10-21T05:11:46.765Z,6.09
2018-10-21T05:12:46.723Z,6.08
2018-10-21T05:13:46.728Z,6.04
2018-10-21T05:14:46.684Z,6.08
2018-10-21T05:15:46.664Z,6.00
2018-10-21T05:16:46.642Z,6.03
2018-10-21T05:17:46.623Z,5.96
2018-10-21T05:18:46.604Z,5.94
2018-10-21T05:19:46.597Z,6.06
2018-10-21T05:20:46.580Z,5.99
2018-10-21T05:21:46.540Z,6.06
2018-10-21T05:22:46.522Z,6.06
2018-10-21T05:23:46.519Z,6.00
2018-10-21T05:24:46.476Z,6.08
2018-10-21T05:25:46.500Z,6.04
2018-10-21T05:26:46.444Z,6.17
2018-10-21T05:27:46.416Z,6.19
2018-10-21T05:28:46.393Z,6.31
2018-10-21T05:29:46.391Z,6.40
2018-10-21T05:30:46.362Z,6.49
2018-10-21T05:31:46.341Z,6.38
2018-10-21T05:32:46.329Z,6.41
2018-10-21T05:33:46.295Z,6.36
2018-10-21T05:34:46.271Z,6.37
2018-10-21T05:35:46.265Z,6.37
2018-10-21T05:36:46.231Z,6.31
2018-10-21T05:37:46.260Z,6.30
2018-10-21T05:38:46.200Z,6.17
2018-10-21T05:39:46.166Z,6.09
2018-10-21T05:40:46.148Z,5.96
2018-10-21T05:41:46.145Z,5.99
2018-10-21T05:42:46.106Z,6.00
2018-10-21T05:43:46.100Z,5.91
2018-10-21T05:44:46.064Z,5.93
2018-10-21T05:45:48.026Z,5.90
2018-10-21T05:46:46.069Z,5.82
2018-10-21T05:47:46.001Z,5.85
2018-10-21T05:48:46.094Z,5.82
2018-10-21T05:49:45.966Z,5.79
2018-10-21T05:50:45.943Z,5.75
2018-10-21T05:51:45.938Z,5.89
2018-10-21T05:52:45.911Z,5.82
2018-10-21T05:53:45.878Z,5.93
2018-10-21T05:54:45.855Z,5.96
2018-10-21T05:55:45.848Z,5.96
2018-10-21T05:56:45.840Z,5.99
2018-10-21T05:57:45.837Z,5.97
2018-10-21T05:58:45.780Z,5.97
2018-10-21T05:59:45.766Z,5.93
2018-10-21T06:00:45.736Z,6.04
2018-10-21T06:01:45.733Z,5.99
2018-10-21T06:02:45.745Z,6.04
2018-10-21T06:03:45.676Z,6.12
2018-10-21T06:04:47.523Z,6.06
2018-10-21T06:05:45.634Z,6.17
2018-10-21T06:06:45.626Z,6.19
2018-10-21T06:07:45.591Z,6.19
2018-10-21T06:08:45.570Z,6.27
2018-10-21T06:09:45.554Z,6.27
2018-10-21T06:10:45.529Z,6.22
2018-10-21T06:11:45.542Z,6.34
2018-10-21T06:12:45.503Z,6.37
2018-10-21T06:13:45.480Z,6.34
2018-10-21T06:14:45.450Z,6.33
2018-10-21T06:15:45.444Z,6.33
2018-10-21T06:16:45.409Z,6.40
2018-10-21T06:17:45.418Z,6.49
2018-10-21T06:18:45.368Z,6.44
2018-10-21T06:19:45.351Z,6.44
2018-10-21T06:20:45.330Z,6.41
2018-10-21T06:21:45.309Z,6.48
2018-10-21T06:22:45.291Z,6.46
2018-10-21T06:23:45.344Z,6.56
2018-10-21T06:24:45.243Z,6.54
2018-10-21T06:25:48.525Z,6.59
2018-10-21T06:26:46.034Z,6.62
2018-10-21T06:27:45.195Z,6.79
2018-10-21T06:28:45.165Z,6.71
2018-10-21T06:29:45.166Z,6.74
2018-10-21T06:30:45.122Z,6.76
2018-10-21T06:31:45.104Z,6.89
2018-10-21T06:32:45.100Z,6.89
2018-10-21T06:33:45.127Z,6.77
2018-10-21T06:34:45.560Z,6.97
2018-10-21T06:35:45.035Z,6.91
2018-10-21T06:36:45.081Z,6.99
2018-10-21T06:37:45.099Z,6.99
2018-10-21T06:38:48.536Z,6.98
2018-10-21T06:39:44.939Z,6.94
2018-10-21T06:40:44.920Z,6.94
2018-10-21T06:41:44.895Z,6.91
2018-10-21T06:42:44.893Z,6.92
2018-10-21T06:43:44.859Z,6.98
2018-10-21T06:44:44.834Z,6.95
2018-10-21T06:45:44.843Z,7.03
2018-10-21T06:46:44.815Z,6.97
2018-10-21T06:47:44.777Z,7.06
2018-10-21T06:48:44.753Z,7.06
2018-10-21T06:49:44.781Z,6.99
2018-10-21T06:50:44.712Z,7.06
2018-10-21T06:51:44.698Z,7.02
2018-10-21T06:52:44.689Z,7.06
2018-10-21T06:53:44.647Z,7.06
2018-10-21T06:54:44.634Z,7.13
2018-10-21T06:55:44.610Z,7.15
2018-10-21T06:56:44.724Z,7.20
2018-10-21T06:57:44.670Z,7.24
2018-10-21T06:58:44.559Z,7.32
2018-10-21T06:59:44.562Z,7.30
2018-10-21T07:00:44.540Z,7.24
2018-10-21T07:01:44.491Z,7.35
2018-10-21T07:02:44.487Z,7.37
2018-10-21T07:03:44.454Z,7.31
2018-10-21T07:04:44.485Z,7.32
2018-10-21T07:05:44.423Z,7.30
2018-10-21T07:06:44.392Z,7.31
2018-10-21T07:09:26.504Z,7.42
2018-10-21T07:10:26.508Z,7.45
2018-10-21T07:11:26.454Z,7.27
2018-10-21T07:12:26.439Z,7.37
2018-10-21T07:13:26.431Z,7.37
2018-10-21T07:14:26.404Z,7.46
2018-10-21T07:15:26.431Z,7.43
2018-10-21T07:16:26.377Z,7.53
2018-10-21T07:17:26.336Z,7.55
2018-10-21T07:18:26.343Z,7.61
2018-10-21T07:19:26.304Z,7.64
2018-10-21T07:20:26.283Z,7.61
2018-10-21T07:21:26.272Z,7.64
2018-10-21T07:22:26.235Z,7.61
2018-10-21T07:23:26.214Z,7.55
2018-10-21T07:24:29.039Z,7.61
2018-10-21T07:25:26.173Z,7.58
2018-10-21T07:26:26.184Z,7.64
2018-10-21T07:27:26.142Z,7.60
2018-10-21T07:28:26.161Z,7.71
2018-10-21T07:29:26.110Z,7.57
2018-10-21T07:30:26.079Z,7.60
2018-10-21T07:31:26.068Z,7.72
2018-10-21T07:32:26.053Z,7.89
2018-10-21T07:33:26.018Z,7.86
2018-10-21T07:34:25.996Z,7.93
2018-10-21T07:35:25.983Z,8.00
2018-10-21T07:36:26.023Z,7.90
2018-10-21T07:37:25.950Z,8.10
2018-10-21T07:38:25.918Z,8.07
2018-10-21T07:39:25.891Z,8.18
2018-10-21T07:40:25.875Z,8.22
2018-10-21T07:41:25.871Z,8.29
2018-10-21T07:42:25.830Z,8.23
2018-10-21T07:43:25.825Z,8.43
2018-10-21T07:44:25.800Z,8.43
2018-10-21T07:45:25.769Z,8.52
2018-10-21T07:46:25.765Z,8.59
2018-10-21T07:47:25.753Z,8.55
2018-10-21T07:48:25.704Z,8.73
2018-10-21T07:49:25.689Z,8.77
2018-10-21T07:50:25.665Z,8.87
2018-10-21T07:51:25.651Z,8.80
2018-10-21T07:52:25.631Z,8.87
2018-10-21T07:53:25.628Z,8.83
2018-10-21T07:54:25.590Z,9.02
2018-10-21T07:55:25.641Z,9.04
2018-10-21T07:56:25.550Z,9.08
2018-10-21T07:57:26.037Z,9.10
2018-10-21T07:58:25.527Z,8.99
2018-10-21T07:59:25.490Z,9.11
2018-10-21T08:00:25.479Z,9.17
2018-10-21T08:01:25.510Z,9.18
2018-10-21T08:02:25.431Z,9.29
2018-10-21T08:03:25.440Z,9.33
2018-10-21T08:04:25.397Z,9.42
2018-10-21T08:05:25.376Z,9.40
2018-10-21T08:06:25.356Z,9.43
2018-10-21T08:07:25.342Z,9.51
2018-10-21T08:08:25.334Z,9.53
2018-10-21T08:09:25.297Z,9.54
2018-10-21T08:10:25.277Z,9.61
2018-10-21T08:11:25.260Z,9.61
2018-10-21T08:12:25.238Z,9.65
2018-10-21T08:13:25.230Z,9.58
2018-10-21T08:14:25.230Z,9.71
2018-10-21T08:15:25.179Z,9.71
2018-10-21T08:16:25.168Z,9.74
2018-10-21T08:17:25.141Z,9.68
2018-10-21T08:18:25.267Z,9.71
2018-10-21T08:19:25.106Z,9.76
2018-10-21T08:20:25.096Z,9.78
2018-10-21T08:21:25.067Z,9.91
2018-10-21T08:22:25.043Z,9.97
2018-10-21T08:23:25.026Z,9.93
2018-10-21T08:24:25.003Z,9.99
2018-10-21T08:25:25.000Z,10.11
2018-10-21T08:26:24.989Z,10.11
2018-10-21T08:27:25.028Z,10.20
2018-10-21T08:28:24.921Z,10.30
2018-10-21T08:29:24.923Z,10.22
2018-10-21T08:32:11.009Z,10.48
2018-10-21T08:33:10.996Z,10.45
2018-10-21T08:34:11.033Z,10.48
2018-10-21T08:35:10.952Z,10.51
2018-10-21T08:36:10.930Z,10.61
2018-10-21T08:37:10.916Z,10.67
2018-10-21T08:38:10.890Z,10.59
2018-10-21T08:39:10.872Z,10.64
2018-10-21T08:40:10.938Z,10.74
2018-10-21T08:41:10.851Z,10.81
2018-10-21T08:42:10.814Z,10.79
2018-10-21T08:43:10.814Z,10.84
2018-10-21T08:44:10.789Z,10.92
2018-10-21T08:45:10.793Z,10.96
2018-10-21T08:46:10.828Z,10.97
2018-10-21T08:47:10.722Z,10.97
2018-10-21T08:48:10.723Z,11.02
2018-10-21T08:49:10.735Z,11.15
2018-10-21T08:50:10.673Z,11.25
2018-10-21T08:51:11.544Z,11.29
2018-10-21T08:52:10.711Z,11.33
2018-10-21T08:53:10.616Z,11.40
2018-10-21T08:54:10.588Z,11.37
2018-10-21T08:55:10.659Z,11.42
2018-10-21T08:56:10.549Z,11.49
2018-10-21T08:57:10.528Z,11.60
2018-10-21T08:58:10.554Z,11.61
2018-10-21T08:59:10.517Z,11.40
2018-10-21T09:00:10.495Z,11.43
2018-10-21T09:01:10.509Z,11.49
2018-10-21T09:02:10.480Z,11.49
2018-10-21T09:03:10.435Z,11.54
2018-10-21T09:04:10.455Z,11.67
2018-10-21T09:05:10.392Z,11.65
2018-10-21T09:06:10.361Z,11.61
2018-10-21T09:07:10.400Z,11.67
2018-10-21T09:08:10.325Z,11.79
2018-10-21T09:09:10.323Z,11.90
2018-10-21T09:10:10.333Z,11.91
2018-10-21T09:11:10.266Z,11.95
2018-10-21T09:12:10.263Z,12.07
2018-10-21T09:13:10.289Z,11.96
2018-10-21T09:14:10.226Z,12.02
2018-10-21T09:15:10.320Z,12.09
2018-10-21T09:16:10.230Z,12.10
2018-10-21T09:17:10.156Z,12.12
2018-10-21T09:18:10.138Z,12.21
2018-10-21T09:19:10.221Z,12.13
2018-10-21T09:20:10.114Z,12.23
2018-10-21T09:21:10.080Z,12.28
2018-10-21T09:22:10.145Z,12.27
2018-10-21T09:23:10.039Z,12.32
2018-10-21T09:24:10.028Z,12.41
2018-10-21T09:25:10.071Z,12.42
2018-10-21T09:26:09.991Z,12.49
2018-10-21T09:27:09.968Z,12.54
2018-10-21T09:28:09.966Z,12.65
2018-10-21T09:29:09.935Z,12.65
2018-10-21T09:30:09.917Z,12.64
2018-10-21T09:31:09.958Z,12.70
2018-10-21T09:32:09.877Z,12.72
2018-10-21T09:33:09.874Z,12.82
2018-10-21T09:34:09.913Z,12.83
2018-10-21T09:35:09.823Z,12.93
2018-10-21T09:36:09.835Z,12.92
2018-10-21T09:37:09.797Z,12.93
2018-10-21T09:38:09.775Z,12.96
2018-10-21T09:39:09.763Z,13.01
2018-10-21T09:40:09.839Z,13.12
2018-10-21T09:41:09.743Z,13.12
2018-10-21T09:42:09.833Z,13.08
2018-10-21T09:43:09.745Z,13.05
2018-10-21T09:44:09.661Z,13.12
2018-10-21T09:45:09.643Z,13.23
2018-10-21T09:46:09.672Z,13.32
2018-10-21T09:47:09.608Z,13.38
2018-10-21T09:48:09.590Z,13.48
2018-10-21T09:49:09.638Z,13.52
2018-10-21T09:50:09.558Z,13.64
2018-10-21T09:51:09.549Z,13.64
2018-10-21T09:52:09.582Z,13.70
2018-10-21T09:53:09.501Z,13.95
2018-10-21T09:54:09.487Z,13.95
2018-10-21T09:55:09.556Z,14.03
2018-10-21T09:56:09.459Z,14.12
2018-10-21T09:57:09.436Z,14.07
2018-10-21T09:58:09.457Z,14.24
2018-10-21T09:59:09.400Z,14.29
2018-10-21T10:00:09.376Z,14.20
2018-10-21T10:01:09.398Z,14.21
2018-10-21T10:02:09.358Z,14.24
2018-10-21T10:03:09.327Z,14.24
2018-10-21T10:04:09.328Z,14.27
2018-10-21T10:05:09.321Z,14.36
2018-10-21T10:06:09.292Z,14.46
2018-10-21T10:07:09.352Z,14.54
2018-10-21T10:08:09.259Z,14.65
2018-10-21T10:09:09.222Z,14.68
2018-10-21T10:10:09.259Z,14.84
2018-10-21T10:11:09.190Z,14.81
2018-10-21T10:12:09.191Z,14.89
2018-10-21T10:13:09.185Z,14.89
2018-10-21T10:14:09.133Z,15.11
2018-10-21T10:15:09.121Z,15.11
2018-10-21T10:16:09.116Z,15.19
2018-10-21T10:17:09.084Z,15.43
2018-10-21T10:18:09.101Z,15.50
2018-10-21T10:19:09.085Z,15.75
2018-10-21T10:20:09.033Z,15.97
2018-10-21T10:21:09.018Z,16.00
2018-10-21T10:22:09.071Z,16.02
2018-10-21T10:23:09.015Z,15.94
2018-10-21T10:24:08.970Z,15.89
2018-10-21T10:25:08.988Z,16.07
2018-10-21T10:26:08.926Z,16.07
2018-10-21T10:27:08.919Z,16.23
2018-10-21T10:28:08.943Z,16.45
2018-10-21T10:29:08.895Z,16.63
2018-10-21T10:30:08.860Z,16.81
2018-10-21T10:31:08.900Z,16.96
2018-10-21T10:32:08.828Z,17.08
2018-10-21T10:33:08.815Z,17.19
2018-10-21T10:34:08.851Z,17.62
2018-10-21T10:35:08.801Z,17.97
2018-10-21T10:36:08.818Z,18.15
2018-10-21T10:37:08.827Z,18.12
2018-10-21T10:38:08.731Z,18.70
2018-10-21T10:39:08.753Z,19.48
2018-10-21T10:40:08.749Z,19.92
2018-10-21T10:41:08.692Z,20.39
2018-10-21T10:42:08.739Z,20.17
2018-10-21T10:43:08.722Z,19.96
2018-10-21T10:44:08.658Z,20.21
2018-10-21T10:45:08.651Z,20.16
2018-10-21T10:46:08.689Z,20.29
2018-10-21T10:47:08.605Z,20.70
2018-10-21T10:48:08.586Z,20.14
2018-10-21T10:49:08.610Z,19.76
2018-10-21T10:50:08.566Z,19.66
2018-10-21T10:51:08.567Z,19.58
2018-10-21T10:52:08.592Z,19.44
2018-10-21T10:53:08.613Z,19.06
2018-10-21T10:54:08.516Z,18.70
2018-10-21T10:55:08.547Z,18.62
2018-10-21T10:56:08.524Z,18.47
2018-10-21T10:57:08.486Z,18.54
2018-10-21T10:58:08.513Z,18.65
2018-10-21T10:59:08.461Z,18.98
2018-10-21T11:00:08.653Z,19.07
2018-10-21T11:01:08.516Z,18.62
2018-10-21T11:02:08.454Z,18.67
2018-10-21T11:03:08.424Z,19.10
2018-10-21T11:04:08.461Z,19.68
2018-10-21T11:05:08.413Z,20.20
2018-10-21T11:06:08.446Z,20.36
2018-10-21T11:07:08.438Z,20.14
2018-10-21T11:08:08.373Z,19.86
2018-10-21T11:09:08.382Z,19.23
2018-10-21T11:10:08.452Z,19.13
2018-10-21T11:11:08.349Z,19.59
2018-10-21T11:12:08.359Z,19.96
2018-10-21T11:13:08.337Z,20.52
2018-10-21T11:14:08.317Z,20.57
2018-10-21T11:15:08.316Z,20.29
2018-10-21T11:16:08.339Z,19.74
2018-10-21T11:17:08.302Z,19.77
2018-10-21T11:18:08.300Z,19.80
2018-10-21T11:19:08.300Z,19.74
2018-10-21T11:20:08.267Z,19.54
2018-10-21T11:21:08.255Z,19.40
2018-10-21T11:22:08.272Z,19.74
2018-10-21T11:23:08.264Z,19.94
2018-10-21T11:24:08.231Z,20.13
2018-10-21T11:25:08.303Z,20.32
2018-10-21T11:26:08.214Z,20.73
2018-10-21T11:27:08.206Z,20.03
2018-10-21T11:28:08.226Z,19.95
2018-10-21T11:29:08.212Z,20.18
2018-10-21T11:30:08.185Z,20.43
2018-10-21T11:31:08.210Z,20.28
2018-10-21T11:32:08.170Z,20.33
2018-10-21T11:33:08.181Z,20.85
2018-10-21T11:34:08.206Z,21.19
2018-10-21T11:35:08.160Z,21.46
2018-10-21T11:36:08.153Z,21.65
2018-10-21T11:37:08.174Z,21.50
2018-10-21T11:38:08.149Z,21.56
2018-10-21T11:39:08.134Z,21.34
2018-10-21T11:40:08.255Z,21.49
2018-10-21T11:41:08.105Z,21.54
2018-10-21T11:42:08.101Z,21.50
2018-10-21T11:43:08.163Z,21.44
2018-10-21T11:44:08.079Z,21.72
2018-10-21T11:45:08.076Z,21.84
2018-10-21T11:46:08.140Z,21.98
2018-10-21T11:47:08.055Z,22.03
2018-10-21T11:48:08.069Z,22.05
2018-10-21T11:49:08.068Z,22.14
2018-10-21T11:50:08.044Z,22.17
2018-10-21T11:51:08.067Z,22.15
2018-10-21T11:52:08.059Z,22.14
2018-10-21T11:53:08.020Z,22.22
2018-10-21T11:54:08.036Z,22.28
2018-10-21T11:55:08.077Z,22.31
2018-10-21T11:56:08.005Z,21.68
2018-10-21T11:57:07.991Z,21.59
2018-10-21T11:58:08.063Z,21.49
2018-10-21T11:59:07.997Z,21.52
2018-10-21T12:00:07.974Z,21.74
2018-10-21T12:01:08.015Z,21.47
2018-10-21T12:02:07.963Z,21.19
2018-10-21T12:03:07.955Z,21.42
2018-10-21T12:04:08.008Z,21.35
2018-10-21T12:05:07.963Z,21.27
2018-10-21T12:06:07.932Z,20.16
2018-10-21T12:07:08.038Z,19.66
2018-10-21T12:08:07.927Z,19.86
2018-10-21T12:09:07.916Z,20.13
2018-10-21T12:10:07.938Z,20.57
2018-10-21T12:11:07.919Z,20.76
2018-10-21T12:12:07.898Z,20.94
2018-10-21T12:13:07.902Z,21.12
2018-10-21T12:14:07.881Z,21.19
2018-10-21T12:15:07.890Z,21.32
2018-10-21T12:16:07.909Z,21.40
2018-10-21T12:17:07.859Z,21.43
2018-10-21T12:18:07.857Z,21.01
2018-10-21T12:19:07.903Z,20.98
2018-10-21T12:20:07.840Z,21.32
2018-10-21T12:21:07.835Z,21.25
2018-10-21T12:22:07.925Z,21.24
2018-10-21T12:23:07.978Z,21.31
2018-10-21T12:24:07.811Z,21.34
2018-10-21T12:25:07.848Z,21.31
2018-10-21T12:26:07.803Z,21.25
2018-10-21T12:27:07.793Z,21.43
2018-10-21T12:28:07.826Z,21.52
2018-10-21T12:29:07.874Z,21.43
2018-10-21T12:30:07.770Z,21.32
2018-10-21T12:31:07.788Z,20.26
2018-10-21T12:32:07.759Z,20.24
2018-10-21T12:33:07.782Z,20.51
2018-10-21T12:34:07.828Z,20.77
2018-10-21T12:35:07.822Z,20.69
2018-10-21T12:36:07.734Z,20.77
2018-10-21T12:37:07.741Z,20.52
2018-10-21T12:38:07.730Z,20.66
2018-10-21T12:39:07.709Z,20.41
2018-10-21T12:40:07.727Z,19.76
2018-10-21T12:41:07.729Z,19.74
2018-10-21T12:42:07.688Z,20.06
2018-10-21T12:43:07.782Z,20.32
2018-10-21T12:44:07.671Z,20.51
2018-10-21T12:45:07.664Z,20.57
2018-10-21T12:46:07.727Z,20.69
2018-10-21T12:47:07.687Z,20.79
2018-10-21T12:48:07.654Z,21.01
2018-10-21T12:49:07.668Z,21.09
2018-10-21T12:50:07.628Z,21.19
2018-10-21T12:51:07.631Z,21.24
2018-10-21T12:52:07.635Z,21.28
2018-10-21T12:53:07.636Z,21.24
2018-10-21T12:54:07.718Z,21.49
2018-10-21T12:55:07.616Z,21.07
2018-10-21T12:56:07.596Z,21.25
2018-10-21T12:57:07.568Z,20.98
2018-10-21T12:58:07.640Z,20.95
2018-10-21T12:59:07.571Z,21.06
2018-10-21T13:00:07.552Z,21.07
2018-10-21T13:01:07.606Z,20.99
2018-10-21T13:02:07.569Z,20.69
2018-10-21T13:03:07.526Z,20.72
2018-10-21T13:04:07.568Z,20.52
2018-10-21T13:05:07.527Z,20.35
2018-10-21T13:06:07.506Z,20.50
2018-10-21T13:07:07.534Z,20.69
2018-10-21T13:08:07.480Z,20.72
2018-10-21T13:09:07.508Z,20.43
2018-10-21T13:10:07.480Z,20.24
2018-10-21T13:11:07.460Z,20.10
2018-10-21T13:12:07.445Z,20.03